Holly, Louisiana
Current Conditions -  °F | °C
As of 7:56 PM on Wednesday 26 Nov 2014 (Local Time) from KSHV Reporting Station
Few Clouds Few Clouds  
Wind Chill: 56°   Ceiling: Unl
Heat Index: 56°   Visibility: 10mi
Dew Point: 35°   Wind: 10mph
Humidity: 45%   Direction: 340°NNW
Pressure: 30.23"   Gusts: NA
Location:  32.117°N, 93.8044°W
Report Text: KSHV 270156Z 34009KT 10SM FEW280 13/02 A3023 RMK AO2 SLP236 T01330017
Loading
Personal Weather Stations






























Interactive Weather Map New forecast layout! Learn more

10-Day Weather Forecast

Advertisements
Track Severe Weather on mobile